首页
METAR-TAF:

METAR-TAF

机场 :

威尔明顿, 北卡罗来纳州, 美国

纬度: 34-16-14N, 经度: 077-54-09W, 海拔: 10米

当前天气观测

该预报发布于48分钟前的18:53 UTC
风速17节,风向,有时为31节阵风
温度 12°C
湿度 76%
气压 1011 hPa
能見度: 16.1公里
阴天层高于2000英尺

METAR: KILM 171853Z 35017G31KT 10SM OVC020 12/08 A2986 RMK AO2 PK WND 35031/1849 SLP110 T01220078 $

时间: 14:41 (19:41 UTC)

预报

该预报发布于2小时和21分钟前的17:20 UTC
预报有效从17日的 18点(UTC)到 18日的 18点(UTC)
风速16节,风向,有时为27节阵风
能見度: 10公里
阴天层高于1500英尺
从 18日的 0100点(UTC)
风速12节,风向
能見度: 10公里
阴天层高于1500英尺
从 18日的 1200点(UTC)
风速6节,风向北转西北
能見度: 10公里
阴天层高于700英尺
从 18日的 1500点(UTC)
风速5节,风向西北
能見度: 10公里
阴天层高于1500英尺

TAF: KILM 171720Z 1718/1818 36016G27KT P6SM OVC015 FM180100 35012KT P6SM OVC015 FM181200 34006KT P6SM OVC007 FM181500 31005KT P6SM OVC015

超过4000个机场的气象观测和天气预报(METAR&TAF报告)。

可查询的气象台以黄色和红色小点在地图上表示。

将鼠标移到小点上方,可查看气象台名称。

然后点击查看天气观测和预报。

如需切换地图:点击带黑十字的绿色按钮放大地图;点击带横线的绿色按钮缩小地图;或者点击绿色箭头查看邻近地区的地图。


METAR-TAF: